Time;durP1;ratioP1;P1;durP2;ratioP2;P2;SDS_P1;SDS_P2;PMS_P1;PMS_P2;Temp;Humidity;BMP_temperature;BMP_pressure;BME280_temperature;BME280_humidity;BME280_pressure;Samples;Min_cycle;Max_cycle;Signal;HPM_P1;HPM_P2
2024/01/25 00:02:03;;;;;;;8.88;2.00;;;30.90;99.90;;;;;;5093422;28;20250;-81
2024/01/25 00:04:33;;;;;;;6.90;2.05;;;31.00;99.90;;;;;;5099796;28;20194;-81
2024/01/25 00:07:04;;;;;;;6.55;1.90;;;31.00;99.90;;;;;;5091816;28;20193;-80
2024/01/25 00:09:35;;;;;;;9.07;2.03;;;31.00;99.90;;;;;;5104641;28;20654;-81
2024/01/25 00:12:06;;;;;;;6.63;2.28;;;31.20;99.90;;;;;;5091588;28;20199;-81
2024/01/25 00:14:37;;;;;;;4.40;1.80;;;31.20;99.90;;;;;;5090744;28;20219;-79
2024/01/25 00:17:10;;;;;;;9.68;1.80;;;31.30;99.90;;;;;;5109178;28;20203;-80
2024/01/25 00:19:41;;;;;;;6.28;1.80;;;31.30;99.90;;;;;;5105090;28;20223;-79
2024/01/25 00:22:14;;;;;;;3.30;1.65;;;31.40;99.90;;;;;;5095236;28;20225;-80
2024/01/25 00:24:45;;;;;;;4.22;1.65;;;31.30;99.90;;;;;;5111518;28;20205;-80
2024/01/25 00:27:16;;;;;;;4.57;1.73;;;31.40;99.90;;;;;;5107895;28;20194;-79
2024/01/25 00:29:45;;;;;;;6.25;1.77;;;31.40;99.90;;;;;;5110820;28;20194;-78
2024/01/25 00:32:17;;;;;;;5.43;2.25;;;31.40;99.90;;;;;;5111287;28;20199;-82
2024/01/25 00:34:48;;;;;;;7.07;2.88;;;31.50;99.90;;;;;;5110021;28;20298;-80
2024/01/25 00:37:20;;;;;;;3.42;1.85;;;31.50;99.90;;;;;;5110765;28;20198;-80
2024/01/25 00:39:51;;;;;;;5.47;2.17;;;31.50;99.90;;;;;;5110015;28;20223;-80
2024/01/25 00:42:25;;;;;;;6.45;2.47;;;31.60;99.90;;;;;;5099880;28;20220;-79
2024/01/25 00:44:56;;;;;;;6.03;2.25;;;31.60;99.90;;;;;;5101460;28;20662;-79
2024/01/25 00:47:30;;;;;;;4.57;2.30;;;31.70;99.90;;;;;;5101391;28;20256;-79
2024/01/25 00:50:01;;;;;;;4.78;2.00;;;31.70;99.90;;;;;;5112205;28;20708;-79
2024/01/25 00:52:32;;;;;;;4.25;2.05;;;31.80;99.90;;;;;;5118123;28;20190;-79
2024/01/25 00:55:03;;;;;;;6.45;2.42;;;31.80;99.90;;;;;;5141240;27;20231;-80
2024/01/25 00:57:34;;;;;;;8.02;2.30;;;31.90;99.90;;;;;;5125147;27;20199;-80
2024/01/25 01:00:07;;;;;;;5.55;2.40;;;31.90;99.90;;;;;;5151466;27;20197;-80
2024/01/25 01:02:46;;;;;;;5.90;2.30;;;31.90;99.90;;;;;;5127610;27;20305;-80
2024/01/25 01:05:18;;;;;;;4.22;2.13;;;31.90;99.90;;;;;;5111559;28;20675;-80
2024/01/25 01:07:49;;;;;;;3.53;2.08;;;31.90;99.90;;;;;;5113141;28;20236;-80
2024/01/25 01:10:20;;;;;;;6.80;2.25;;;31.90;99.90;;;;;;5131007;27;20277;-80
2024/01/25 01:12:51;;;;;;;8.75;1.90;;;31.90;99.90;;;;;;5150923;27;20197;-80
2024/01/25 01:15:22;;;;;;;5.93;2.20;;;31.90;99.90;;;;;;5134565;27;20644;-80
2024/01/25 01:17:55;;;;;;;7.22;2.40;;;31.80;99.90;;;;;;5135718;27;20212;-79
2024/01/25 01:20:26;;;;;;;4.82;2.30;;;31.90;99.90;;;;;;5134044;27;20204;-79
2024/01/25 01:22:57;;;;;;;6.20;2.10;;;31.90;99.90;;;;;;5135611;27;20198;-79
2024/01/25 01:25:28;;;;;;;5.28;2.00;;;32.00;99.90;;;;;;5126788;27;20209;-79
2024/01/25 01:27:58;;;;;;;5.68;2.25;;;32.00;99.90;;;;;;5114737;28;20619;-79
2024/01/25 01:30:29;;;;;;;6.97;2.67;;;32.10;99.90;;;;;;5115961;27;20277;-79
2024/01/25 01:33:02;;;;;;;11.60;3.45;;;32.10;99.90;;;;;;5120188;27;20195;-80
2024/01/25 01:35:33;;;;;;;7.55;2.72;;;32.20;99.90;;;;;;5115032;27;20230;-80
2024/01/25 01:38:04;;;;;;;8.10;2.83;;;32.10;99.90;;;;;;5122933;27;20194;-80
2024/01/25 01:40:34;;;;;;;6.53;2.60;;;32.10;99.90;;;;;;5135277;27;20194;-80
2024/01/25 01:43:06;;;;;;;8.02;2.60;;;32.10;99.90;;;;;;5130771;27;20187;-80
2024/01/25 01:45:36;;;;;;;14.50;4.10;;;32.10;99.90;;;;;;5115829;27;20205;-80
2024/01/25 01:48:10;;;;;;;8.15;3.83;;;32.10;99.90;;;;;;5120136;27;20195;-80
2024/01/25 01:50:41;;;;;;;10.50;3.88;;;32.10;99.90;;;;;;5113578;28;20222;-80
2024/01/25 01:53:12;;;;;;;13.52;4.10;;;32.00;99.90;;;;;;5114650;27;20203;-80
2024/01/25 01:55:44;;;;;;;10.70;4.13;;;32.00;99.90;;;;;;5113629;28;20223;-80
2024/01/25 01:58:15;;;;;;;10.02;3.30;;;31.90;99.90;;;;;;5114304;28;20707;-82
2024/01/25 02:00:48;;;;;;;10.35;3.33;;;31.80;99.90;;;;;;5113464;28;20198;-82
2024/01/25 02:03:21;;;;;;;9.65;3.30;;;31.70;99.90;;;;;;5112659;28;20226;-82
2024/01/25 02:05:52;;;;;;;12.52;3.17;;;31.50;99.90;;;;;;5115182;27;20582;-79
2024/01/25 02:08:22;;;;;;;10.27;3.10;;;31.30;99.90;;;;;;5113326;28;20559;-79
2024/01/25 02:10:53;;;;;;;13.10;3.35;;;31.00;99.90;;;;;;5115250;28;20201;-79
2024/01/25 02:13:24;;;;;;;16.02;3.53;;;30.80;99.90;;;;;;5133733;27;20756;-80
2024/01/25 02:15:55;;;;;;;11.05;2.92;;;30.60;99.90;;;;;;5126993;27;20321;-80
2024/01/25 02:18:27;;;;;;;12.85;3.10;;;30.40;99.90;;;;;;5118610;27;20282;-80
2024/01/25 02:20:58;;;;;;;11.88;3.10;;;30.20;99.90;;;;;;5126595;27;20190;-80
2024/01/25 02:23:31;;;;;;;10.43;3.22;;;30.10;99.90;;;;;;5114107;28;20273;-80
2024/01/25 02:26:02;;;;;;;10.45;3.10;;;30.00;99.90;;;;;;5121288;27;20206;-80
2024/01/25 02:28:32;;;;;;;15.15;3.78;;;29.80;99.90;;;;;;5131361;27;20208;-80
2024/01/25 02:31:04;;;;;;;11.65;3.35;;;29.70;99.90;;;;;;5130007;27;20198;-80
2024/01/25 02:33:37;;;;;;;13.13;3.42;;;29.70;99.90;;;;;;5128161;27;20259;-80
2024/01/25 02:36:08;;;;;;;11.25;3.40;;;29.60;99.90;;;;;;5115872;27;20216;-79
2024/01/25 02:38:41;;;;;;;14.07;3.65;;;29.30;99.90;;;;;;5131411;27;20190;-79
2024/01/25 02:41:12;;;;;;;12.88;3.47;;;29.10;99.90;;;;;;5111772;28;20613;-80
2024/01/25 02:43:45;;;;;;;12.45;3.42;;;29.00;99.90;;;;;;5124522;27;20200;-79
2024/01/25 02:46:16;;;;;;;18.65;3.58;;;28.90;99.90;;;;;;5126132;27;20233;-80
2024/01/25 02:48:47;;;;;;;18.00;3.97;;;28.70;99.90;;;;;;5117822;27;20198;-81
2024/01/25 02:51:17;;;;;;;15.32;3.53;;;28.70;99.90;;;;;;5121591;27;20226;-81
2024/01/25 02:53:50;;;;;;;17.80;3.92;;;28.60;99.90;;;;;;5116911;27;20249;-82
2024/01/25 02:56:21;;;;;;;18.38;4.32;;;28.60;99.90;;;;;;5112344;28;20223;-81
2024/01/25 02:58:52;;;;;;;14.15;3.65;;;28.60;99.90;;;;;;5127967;27;20201;-81
2024/01/25 03:01:22;;;;;;;14.20;3.58;;;28.60;99.90;;;;;;5123804;27;20190;-81
2024/01/25 03:03:53;;;;;;;12.73;3.40;;;28.60;99.90;;;;;;5112347;28;20368;-80
2024/01/25 03:06:24;;;;;;;15.32;3.70;;;28.60;99.90;;;;;;5123015;27;20205;-80
2024/01/25 03:08:57;;;;;;;14.40;3.75;;;28.60;99.90;;;;;;5125747;27;20564;-78
2024/01/25 03:11:28;;;;;;;15.52;3.33;;;28.70;99.90;;;;;;5122794;27;20209;-79
2024/01/25 03:13:58;;;;;;;14.45;3.97;;;28.80;99.90;;;;;;5099316;27;20203;-79
2024/01/25 03:16:29;;;;;;;12.10;3.50;;;28.80;99.90;;;;;;5123490;27;20324;-80
2024/01/25 03:19:00;;;;;;;13.48;3.45;;;28.80;99.90;;;;;;5121838;27;20283;-79
2024/01/25 03:21:31;;;;;;;17.20;3.80;;;28.70;99.90;;;;;;5124252;27;20209;-79
2024/01/25 03:24:03;;;;;;;14.30;3.47;;;28.70;99.90;;;;;;5119171;27;20540;-80
2024/01/25 03:26:34;;;;;;;11.02;3.33;;;28.60;99.90;;;;;;5122104;27;20194;-81
2024/01/25 03:29:05;;;;;;;12.07;3.20;;;28.70;99.90;;;;;;5115118;27;20189;-79
2024/01/25 03:31:36;;;;;;;14.93;3.72;;;28.70;99.90;;;;;;5120666;27;20195;-80
2024/01/25 03:34:07;;;;;;;14.88;3.13;;;28.70;99.90;;;;;;5091616;27;20193;-80
2024/01/25 03:36:39;;;;;;;13.15;3.00;;;28.80;99.90;;;;;;5120372;27;20631;-80
2024/01/25 03:39:11;;;;;;;13.30;3.30;;;28.80;99.90;;;;;;5120097;27;20634;-79
2024/01/25 03:41:42;;;;;;;11.68;3.13;;;28.80;99.90;;;;;;5119695;27;20229;-79
2024/01/25 03:44:13;;;;;;;9.82;2.83;;;28.80;99.90;;;;;;5131386;27;20186;-80
2024/01/25 03:46:44;;;;;;;11.65;2.80;;;28.90;99.90;;;;;;5119071;27;20204;-81
2024/01/25 03:49:15;;;;;;;9.88;3.10;;;28.80;99.90;;;;;;5132611;27;20197;-81
2024/01/25 03:51:45;;;;;;;11.05;3.10;;;28.80;99.90;;;;;;5126897;27;20225;-80
2024/01/25 03:54:18;;;;;;;12.70;3.15;;;28.80;99.90;;;;;;5111328;28;20191;-80
2024/01/25 03:56:49;;;;;;;9.80;3.13;;;28.90;99.90;;;;;;5120503;27;20301;-81
2024/01/25 03:59:20;;;;;;;11.23;3.17;;;29.00;99.90;;;;;;5111684;28;20195;-83
2024/01/25 04:01:51;;;;;;;10.38;2.78;;;29.00;99.90;;;;;;5121458;27;20229;-80
2024/01/25 04:04:22;;;;;;;12.32;3.20;;;29.00;99.90;;;;;;5118451;27;20646;-80
2024/01/25 04:06:53;;;;;;;11.30;3.00;;;29.00;99.90;;;;;;5118365;27;20524;-80
2024/01/25 04:09:26;;;;;;;10.40;3.30;;;28.90;99.90;;;;;;5131863;27;20237;-80
2024/01/25 04:11:57;;;;;;;11.95;3.30;;;28.90;99.90;;;;;;5130554;27;20190;-80
2024/01/25 04:14:28;;;;;;;11.40;3.10;;;28.90;99.90;;;;;;5132811;27;20193;-81
2024/01/25 04:16:59;;;;;;;12.23;3.13;;;29.00;99.90;;;;;;5123909;27;20206;-81
2024/01/25 04:19:29;;;;;;;10.05;2.97;;;29.00;99.90;;;;;;5122191;27;20197;-81
2024/01/25 04:22:00;;;;;;;12.80;2.80;;;29.10;99.90;;;;;;5123708;27;20201;-81
2024/01/25 04:24:33;;;;;;;13.10;3.58;;;29.20;99.90;;;;;;5115906;27;20569;-80
2024/01/25 04:27:04;;;;;;;8.48;2.88;;;29.30;99.90;;;;;;5116152;27;20285;-80
2024/01/25 04:29:35;;;;;;;8.52;2.47;;;29.40;99.90;;;;;;5128801;27;20196;-80
2024/01/25 04:32:06;;;;;;;10.52;2.83;;;29.40;99.90;;;;;;5152875;27;20197;-83
2024/01/25 04:34:38;;;;;;;10.45;2.80;;;29.50;99.90;;;;;;5119339;27;20215;-81
2024/01/25 04:37:08;;;;;;;10.18;2.70;;;29.60;99.90;;;;;;5128195;27;20230;-81
2024/01/25 04:39:41;;;;;;;9.20;2.47;;;29.70;99.90;;;;;;5111529;28;20225;-81
2024/01/25 04:42:12;;;;;;;9.65;2.35;;;29.70;99.90;;;;;;5118860;27;20217;-81
2024/01/25 04:44:43;;;;;;;10.32;2.70;;;29.80;99.90;;;;;;5110966;28;20570;-82
2024/01/25 04:47:14;;;;;;;9.88;2.67;;;29.80;99.90;;;;;;5127286;27;20224;-82
2024/01/25 04:49:45;;;;;;;9.23;2.80;;;29.70;99.90;;;;;;5117713;27;20212;-82
2024/01/25 04:52:15;;;;;;;9.40;3.03;;;29.70;99.90;;;;;;5111144;28;20201;-82
2024/01/25 04:54:49;;;;;;;9.82;3.10;;;29.70;99.90;;;;;;5111597;28;20547;-81
2024/01/25 04:57:20;;;;;;;11.40;2.72;;;29.70;99.90;;;;;;5128724;28;20588;-82
2024/01/25 04:59:51;;;;;;;10.65;2.80;;;29.80;99.90;;;;;;5125438;28;20187;-82
2024/01/25 05:02:22;;;;;;;11.10;2.97;;;30.00;99.90;;;;;;5126337;28;20190;-82
2024/01/25 05:04:52;;;;;;;12.27;3.17;;;30.00;99.90;;;;;;5130481;28;20665;-81
2024/01/25 05:07:23;;;;;;;12.02;3.33;;;29.80;99.90;;;;;;5130647;28;20562;-80
2024/01/25 05:09:56;;;;;;;10.65;3.08;;;29.90;99.90;;;;;;5127148;28;20691;-81
2024/01/25 05:12:26;;;;;;;10.73;3.17;;;29.80;99.90;;;;;;5110500;28;20209;-79
2024/01/25 05:14:57;;;;;;;11.50;2.92;;;29.80;99.90;;;;;;5129746;28;20745;-79
2024/01/25 05:17:28;;;;;;;9.05;2.90;;;29.70;99.90;;;;;;5114017;28;20225;-80
2024/01/25 05:19:59;;;;;;;13.45;2.95;;;29.70;99.90;;;;;;5091016;27;20674;-80
2024/01/25 05:22:29;;;;;;;11.98;2.85;;;29.60;99.90;;;;;;5122718;28;20214;-79
2024/01/25 05:25:04;;;;;;;14.40;2.95;;;29.60;99.90;;;;;;5131175;28;20661;-80
2024/01/25 05:27:35;;;;;;;12.82;2.97;;;29.50;99.90;;;;;;5131521;28;20208;-80
2024/01/25 05:30:06;;;;;;;12.32;3.20;;;29.40;99.90;;;;;;5123882;28;20199;-80
2024/01/25 05:32:37;;;;;;;11.32;3.28;;;29.30;99.90;;;;;;5120503;28;20198;-81
2024/01/25 05:35:09;;;;;;;12.15;3.20;;;29.20;99.90;;;;;;5116458;28;20191;-80
2024/01/25 05:37:39;;;;;;;12.48;3.22;;;29.10;99.90;;;;;;5114548;28;20739;-80
2024/01/25 05:40:13;;;;;;;16.45;3.30;;;29.10;99.90;;;;;;5121818;28;20204;-80
2024/01/25 05:42:44;;;;;;;12.18;3.28;;;29.10;99.90;;;;;;5130993;28;20198;-81
2024/01/25 05:45:15;;;;;;;10.27;3.03;;;29.10;99.90;;;;;;5120921;28;20221;-81
2024/01/25 05:47:46;;;;;;;14.02;3.22;;;29.10;99.90;;;;;;5112631;28;20209;-81
2024/01/25 05:50:17;;;;;;;14.50;3.28;;;29.10;99.90;;;;;;5114635;28;20223;-82
2024/01/25 05:52:48;;;;;;;15.13;3.17;;;29.10;99.90;;;;;;5110115;28;20213;-81
2024/01/25 05:55:20;;;;;;;14.80;3.50;;;29.00;99.90;;;;;;5110877;28;20195;-81
2024/01/25 05:57:54;;;;;;;14.70;3.58;;;29.10;99.90;;;;;;5111154;28;20217;-81
2024/01/25 06:00:27;;;;;;;11.60;3.10;;;29.10;99.90;;;;;;5110825;28;20179;-81
2024/01/25 06:02:58;;;;;;;13.80;3.35;;;28.90;99.90;;;;;;5114216;28;20202;-80
2024/01/25 06:05:29;;;;;;;16.67;3.83;;;29.00;99.90;;;;;;5117522;27;20634;-80
2024/01/25 06:08:00;;;;;;;15.20;3.80;;;29.00;99.90;;;;;;5117688;27;20204;-80
2024/01/25 06:10:33;;;;;;;16.98;3.30;;;29.00;99.90;;;;;;5135366;27;20254;-81
2024/01/25 06:13:03;;;;;;;15.85;3.67;;;29.00;99.90;;;;;;5134956;27;20280;-82
2024/01/25 06:15:34;;;;;;;16.83;3.85;;;29.10;99.90;;;;;;5135219;27;20258;-80
2024/01/25 06:18:05;;;;;;;14.75;3.78;;;29.20;99.90;;;;;;5134711;27;20198;-81
2024/01/25 06:20:36;;;;;;;13.55;3.33;;;29.40;99.90;;;;;;5119981;27;20209;-80
2024/01/25 06:23:07;;;;;;;12.05;3.92;;;29.30;99.90;;;;;;5126163;27;20186;-82
2024/01/25 06:25:40;;;;;;;15.82;3.88;;;29.40;99.90;;;;;;5124861;27;20198;-81
2024/01/25 06:28:11;;;;;;;15.90;3.15;;;29.40;99.90;;;;;;5117619;27;20662;-80
2024/01/25 06:30:42;;;;;;;16.85;3.72;;;29.20;99.90;;;;;;5119375;27;20194;-80
2024/01/25 06:33:13;;;;;;;12.98;3.13;;;29.10;99.90;;;;;;5133740;27;20190;-80
2024/01/25 06:35:44;;;;;;;17.33;4.20;;;28.90;99.90;;;;;;5133490;27;20198;-79
2024/01/25 06:38:16;;;;;;;16.27;3.60;;;28.90;99.90;;;;;;5112783;28;20195;-81
2024/01/25 06:40:49;;;;;;;13.43;3.40;;;28.80;99.90;;;;;;5114014;28;20216;-81
2024/01/25 06:43:20;;;;;;;13.18;3.85;;;28.80;99.90;;;;;;5120313;27;20195;-79
2024/01/25 06:45:51;;;;;;;16.08;4.35;;;28.80;99.90;;;;;;5119167;27;20604;-79
2024/01/25 06:48:22;;;;;;;13.90;3.97;;;28.70;99.90;;;;;;5117056;27;20658;-79
2024/01/25 06:50:53;;;;;;;16.77;3.90;;;28.70;99.90;;;;;;5112245;28;20642;-79
2024/01/25 06:53:25;;;;;;;16.25;3.88;;;28.70;99.90;;;;;;5117628;27;20187;-80
2024/01/25 06:55:58;;;;;;;17.08;4.57;;;28.70;99.90;;;;;;5113173;28;20206;-81
2024/01/25 06:58:30;;;;;;;18.73;4.65;;;28.60;99.90;;;;;;5117122;27;20604;-81
2024/01/25 07:01:01;;;;;;;18.15;4.93;;;28.60;99.90;;;;;;5133175;27;20275;-81
2024/01/25 07:03:32;;;;;;;14.48;4.90;;;28.60;99.90;;;;;;5114649;27;20210;-81
2024/01/25 07:06:04;;;;;;;13.50;4.10;;;28.60;99.90;;;;;;5113639;28;20195;-81
2024/01/25 07:08:36;;;;;;;16.13;4.20;;;28.60;99.90;;;;;;5113567;28;20202;-80
2024/01/25 07:11:09;;;;;;;12.68;3.83;;;28.60;99.90;;;;;;5122061;27;20557;-81
2024/01/25 07:13:40;;;;;;;17.25;4.18;;;28.60;99.90;;;;;;5133045;27;20200;-79
2024/01/25 07:16:11;;;;;;;15.07;4.20;;;28.50;99.90;;;;;;5132661;27;20237;-80
2024/01/25 07:18:43;;;;;;;12.70;3.55;;;28.50;99.90;;;;;;5129780;27;20198;-81
2024/01/25 07:21:14;;;;;;;13.38;4.03;;;28.50;99.90;;;;;;5127538;27;20201;-80
2024/01/25 07:23:45;;;;;;;13.57;4.13;;;28.50;99.90;;;;;;5115764;27;20202;-81
2024/01/25 07:26:25;;;;;;;15.68;4.38;;;28.50;99.90;;;;;;5123317;27;20801;-81
2024/01/25 07:28:58;;;;;;;14.85;4.35;;;28.50;99.90;;;;;;5114363;28;20821;-81
2024/01/25 07:31:29;;;;;;;17.27;4.15;;;28.40;99.90;;;;;;5112049;28;20191;-81
2024/01/25 07:34:00;;;;;;;14.10;3.70;;;28.40;99.90;;;;;;5112190;28;20199;-80
2024/01/25 07:36:31;;;;;;;14.68;3.63;;;28.30;99.90;;;;;;5112284;28;20228;-81
2024/01/25 07:39:03;;;;;;;13.52;4.20;;;28.30;99.90;;;;;;5112357;28;20557;-81
2024/01/25 07:41:36;;;;;;;14.75;4.15;;;28.30;99.90;;;;;;5111609;28;20607;-80
2024/01/25 07:44:07;;;;;;;14.98;4.15;;;28.30;99.90;;;;;;5115178;27;20665;-83
2024/01/25 07:46:38;;;;;;;15.13;4.35;;;28.30;99.90;;;;;;5119838;27;20217;-80
2024/01/25 07:49:09;;;;;;;20.58;4.57;;;28.30;99.90;;;;;;5116388;27;20293;-81
2024/01/25 07:51:41;;;;;;;18.42;4.28;;;28.20;99.90;;;;;;5123330;27;20233;-82
2024/01/25 07:54:12;;;;;;;14.15;4.30;;;28.20;99.90;;;;;;5115800;27;20229;-80
2024/01/25 07:56:45;;;;;;;13.55;4.13;;;28.20;99.90;;;;;;5117845;27;20214;-81
2024/01/25 07:59:16;;;;;;;16.83;4.22;;;28.20;99.90;;;;;;5119947;27;20251;-81
2024/01/25 08:01:47;;;;;;;17.48;4.47;;;28.20;99.90;;;;;;5110416;28;20199;-81
2024/01/25 08:04:19;;;;;;;16.33;4.20;;;28.10;99.90;;;;;;5113827;27;20372;-81
2024/01/25 08:06:50;;;;;;;13.38;3.47;;;28.20;99.90;;;;;;5126524;27;20190;-80
2024/01/25 08:09:21;;;;;;;15.25;4.10;;;28.20;99.90;;;;;;5129151;27;20212;-81
2024/01/25 08:11:55;;;;;;;14.30;3.90;;;28.20;99.90;;;;;;5114580;27;20205;-81
2024/01/25 08:14:26;;;;;;;11.82;3.95;;;28.20;99.90;;;;;;5110231;28;20194;-80
2024/01/25 08:16:57;;;;;;;17.00;4.40;;;28.20;99.90;;;;;;5110303;28;20215;-79
2024/01/25 08:19:28;;;;;;;15.57;4.55;;;28.20;99.90;;;;;;5111629;27;20205;-80
2024/01/25 08:21:59;;;;;;;14.13;4.75;;;28.10;99.90;;;;;;5114506;27;20194;-81
2024/01/25 08:24:33;;;;;;;16.40;4.78;;;28.10;99.90;;;;;;5108299;28;20597;-80
2024/01/25 08:27:07;;;;;;;15.30;4.10;;;28.10;99.90;;;;;;5116475;27;20277;-81
2024/01/25 08:29:39;;;;;;;16.15;4.45;;;28.10;99.90;;;;;;5131123;27;20631;-79
2024/01/25 08:32:10;;;;;;;14.35;4.00;;;28.10;99.90;;;;;;5129751;27;20345;-81
2024/01/25 08:34:42;;;;;;;14.10;4.18;;;28.10;99.90;;;;;;5111592;28;20258;-81
2024/01/25 08:37:13;;;;;;;14.85;4.35;;;28.10;99.90;;;;;;5122981;27;20226;-81
2024/01/25 08:39:45;;;;;;;15.45;3.80;;;28.10;99.90;;;;;;5126119;27;20198;-80
2024/01/25 08:42:19;;;;;;;17.45;4.35;;;28.10;99.90;;;;;;5113700;27;20586;-81
2024/01/25 08:44:51;;;;;;;17.42;4.05;;;28.00;99.90;;;;;;5110138;28;20198;-81
2024/01/25 08:47:22;;;;;;;16.33;4.30;;;28.00;99.90;;;;;;5110535;28;20203;-82
2024/01/25 08:49:53;;;;;;;13.80;4.22;;;28.00;99.90;;;;;;5134896;27;20225;-81
2024/01/25 08:52:24;;;;;;;15.82;4.50;;;28.00;99.90;;;;;;5141292;27;20604;-81
2024/01/25 08:54:55;;;;;;;12.48;4.45;;;28.00;99.90;;;;;;5109963;28;20186;-80
2024/01/25 08:57:28;;;;;;;16.10;4.18;;;28.00;99.90;;;;;;5124326;28;20236;-81
2024/01/25 09:00:00;;;;;;;16.02;3.88;;;28.00;99.90;;;;;;5109817;28;20205;-81
2024/01/25 09:02:32;;;;;;;14.45;4.22;;;27.90;99.90;;;;;;5111878;28;20208;-80
2024/01/25 09:05:03;;;;;;;12.60;4.80;;;28.00;99.90;;;;;;5116521;28;20241;-80
2024/01/25 09:07:34;;;;;;;16.63;5.15;;;27.90;99.90;;;;;;5110351;28;20194;-81
2024/01/25 09:10:06;;;;;;;18.58;5.25;;;27.90;99.90;;;;;;5123684;28;20561;-81
2024/01/25 09:12:40;;;;;;;16.90;5.22;;;27.90;99.90;;;;;;5110361;28;20194;-81
2024/01/25 09:15:12;;;;;;;15.18;4.60;;;27.90;99.90;;;;;;5110815;28;20723;-81
2024/01/25 09:17:43;;;;;;;18.77;5.18;;;27.90;99.90;;;;;;5115450;28;20245;-80
2024/01/25 09:20:15;;;;;;;13.63;4.30;;;27.90;99.90;;;;;;5121065;28;20193;-80
2024/01/25 09:22:46;;;;;;;14.25;3.95;;;27.90;99.90;;;;;;5123319;28;20542;-81
2024/01/25 09:25:17;;;;;;;15.00;4.03;;;27.80;99.90;;;;;;5117130;28;20201;-81
2024/01/25 09:27:50;;;;;;;12.80;3.80;;;27.80;99.90;;;;;;5112682;28;20201;-81
2024/01/25 09:30:22;;;;;;;12.48;3.92;;;27.80;99.90;;;;;;5120997;28;20195;-82
2024/01/25 09:32:53;;;;;;;9.77;4.03;;;27.80;99.90;;;;;;5118618;28;20230;-81
2024/01/25 09:35:24;;;;;;;13.05;4.10;;;27.80;99.90;;;;;;5131819;27;20194;-82
2024/01/25 09:37:55;;;;;;;10.45;3.08;;;27.80;99.90;;;;;;5138065;27;20218;-81
2024/01/25 09:40:26;;;;;;;11.57;3.70;;;27.80;99.90;;;;;;5118657;27;20669;-81
2024/01/25 09:42:59;;;;;;;11.57;3.45;;;27.80;99.90;;;;;;5114036;27;20212;-81
2024/01/25 09:45:29;;;;;;;11.15;3.53;;;27.80;99.90;;;;;;5132803;27;20190;-81
2024/01/25 09:48:00;;;;;;;12.90;3.47;;;27.80;99.90;;;;;;5129801;27;20722;-80
2024/01/25 09:50:33;;;;;;;9.05;3.35;;;27.80;99.90;;;;;;5114333;27;20231;-81
2024/01/25 09:53:05;;;;;;;10.27;3.05;;;27.80;99.90;;;;;;5118485;27;20221;-82
2024/01/25 09:55:38;;;;;;;9.60;2.95;;;27.80;99.90;;;;;;5115752;27;20209;-81
2024/01/25 09:58:11;;;;;;;8.07;3.05;;;27.80;99.90;;;;;;5113787;28;20312;-82
2024/01/25 10:00:42;;;;;;;9.18;3.17;;;27.80;99.90;;;;;;5113617;27;20650;-82
2024/01/25 10:03:13;;;;;;;9.15;2.95;;;27.70;99.90;;;;;;5129372;27;20189;-82
2024/01/25 10:05:44;;;;;;;7.47;3.03;;;27.80;99.90;;;;;;5124360;27;20222;-80
2024/01/25 10:08:18;;;;;;;9.43;3.10;;;27.80;99.90;;;;;;5118911;27;20215;-83
2024/01/25 10:10:49;;;;;;;5.88;2.75;;;27.80;99.90;;;;;;5130749;27;20653;-83
2024/01/25 10:13:22;;;;;;;6.78;2.90;;;27.80;99.90;;;;;;5134826;27;20632;-82
2024/01/25 10:15:52;;;;;;;7.60;3.17;;;27.80;99.90;;;;;;5117593;27;20223;-82
2024/01/25 10:18:24;;;;;;;8.70;3.15;;;27.80;99.90;;;;;;5113208;27;20763;-82
2024/01/25 10:20:56;;;;;;;8.95;3.45;;;27.90;99.90;;;;;;5114143;28;20195;-82
2024/01/25 10:23:27;;;;;;;8.25;3.15;;;27.80;99.90;;;;;;5113447;28;20237;-82
2024/01/25 10:25:59;;;;;;;6.95;2.90;;;27.90;99.90;;;;;;5123679;27;20680;-81
2024/01/25 10:28:32;;;;;;;10.10;3.30;;;27.90;99.90;;;;;;5134402;27;20198;-83
2024/01/25 10:31:06;;;;;;;7.97;2.78;;;27.90;99.90;;;;;;5126588;27;20680;-81
2024/01/25 10:33:39;;;;;;;8.98;3.10;;;28.00;99.90;;;;;;5132483;27;20193;-81
2024/01/25 10:36:13;;;;;;;8.15;3.33;;;28.00;99.90;;;;;;5113286;27;20246;-82
2024/01/25 10:38:47;;;;;;;9.63;3.50;;;28.00;99.90;;;;;;5121746;27;20701;-81
2024/01/25 10:41:17;;;;;;;11.40;3.67;;;28.00;99.90;;;;;;5133203;27;20194;-81
2024/01/25 10:43:50;;;;;;;12.45;3.70;;;28.00;99.90;;;;;;5130593;27;20197;-82
2024/01/25 10:46:21;;;;;;;9.02;3.58;;;28.00;99.90;;;;;;5134702;27;20205;-84
2024/01/25 10:48:53;;;;;;;7.65;3.33;;;28.00;99.90;;;;;;5128489;27;20194;-83
2024/01/25 10:51:24;;;;;;;10.95;3.88;;;28.00;99.90;;;;;;5128525;27;20313;-82
2024/01/25 10:53:55;;;;;;;10.40;3.90;;;28.00;99.90;;;;;;5113250;28;20195;-82
2024/01/25 10:56:26;;;;;;;11.60;3.85;;;27.90;99.90;;;;;;5125276;27;20190;-83
2024/01/25 10:58:59;;;;;;;8.80;3.60;;;27.90;99.90;;;;;;5118837;27;20240;-83
2024/01/25 11:01:31;;;;;;;10.93;3.58;;;27.90;99.90;;;;;;5133789;27;20207;-84
2024/01/25 11:04:02;;;;;;;10.82;3.95;;;27.80;99.90;;;;;;5131974;27;20205;-83
2024/01/25 11:06:36;;;;;;;13.13;4.05;;;27.90;99.90;;;;;;5112993;28;20277;-82
2024/01/25 11:09:11;;;;;;;13.45;4.13;;;27.80;99.90;;;;;;5113269;27;20240;-81
2024/01/25 11:11:46;;;;;;;14.45;4.45;;;27.80;99.90;;;;;;5114265;27;20764;-83
2024/01/25 11:14:19;;;;;;;15.45;4.25;;;27.80;99.90;;;;;;5121137;27;20201;-82
2024/01/25 11:16:50;;;;;;;14.63;3.97;;;27.80;99.90;;;;;;5144941;27;20193;-82
2024/01/25 11:19:22;;;;;;;14.55;4.40;;;27.80;99.90;;;;;;5154060;27;20224;-82
2024/01/25 11:21:53;;;;;;;14.77;4.60;;;27.80;99.90;;;;;;5153656;27;20236;-82
2024/01/25 11:24:25;;;;;;;16.58;4.75;;;27.70;99.90;;;;;;5142494;27;20204;-82
2024/01/25 11:26:58;;;;;;;14.30;4.20;;;27.70;99.90;;;;;;5133097;27;20206;-81
2024/01/25 11:29:30;;;;;;;11.98;3.85;;;27.60;99.90;;;;;;5151512;27;20231;-81
2024/01/25 11:32:01;;;;;;;10.43;2.95;;;27.50;99.90;;;;;;5121902;27;20208;-81
2024/01/25 11:34:33;;;;;;;8.82;3.05;;;27.40;99.90;;;;;;5112953;28;20198;-82
2024/01/25 11:37:04;;;;;;;8.70;2.90;;;27.50;99.90;;;;;;5112645;28;20202;-82
2024/01/25 11:39:36;;;;;;;6.85;2.75;;;27.40;99.90;;;;;;5111546;27;20222;-83
2024/01/25 11:42:07;;;;;;;6.88;2.80;;;27.50;99.90;;;;;;5112598;27;20198;-83
2024/01/25 11:44:40;;;;;;;6.75;2.70;;;27.50;99.90;;;;;;5111882;28;20195;-82
2024/01/25 11:47:11;;;;;;;8.55;2.40;;;27.60;99.90;;;;;;5112647;28;20202;-83
2024/01/25 11:49:43;;;;;;;8.63;2.70;;;27.60;99.90;;;;;;5115422;28;20553;-83
2024/01/25 11:52:14;;;;;;;8.65;3.00;;;27.60;99.90;;;;;;5114490;28;20199;-82
2024/01/25 11:54:44;;;;;;;6.60;2.78;;;27.70;99.90;;;;;;5112009;28;20203;-82
2024/01/25 11:57:16;;;;;;;6.82;2.58;;;27.70;99.90;;;;;;5110549;28;20561;-83
2024/01/25 11:59:49;;;;;;;7.53;2.72;;;27.70;99.90;;;;;;5110517;28;20229;-82
2024/01/25 12:02:20;;;;;;;8.95;2.97;;;27.70;99.90;;;;;;5111396;28;20267;-83
2024/01/25 12:04:53;;;;;;;8.30;2.90;;;27.80;99.90;;;;;;5118538;27;20675;-82
2024/01/25 12:07:24;;;;;;;9.60;2.75;;;27.80;99.90;;;;;;5132955;27;20569;-82
2024/01/25 12:10:02;;;;;;;6.85;2.47;;;27.70;99.90;;;;;;5132156;27;20741;-82
2024/01/25 12:12:33;;;;;;;6.03;2.30;;;27.70;99.90;;;;;;5119036;27;20287;-83
2024/01/25 12:15:09;;;;;;;6.10;2.38;;;27.70;99.90;;;;;;5111311;28;20201;-81
2024/01/25 12:17:40;;;;;;;7.30;2.80;;;27.70;99.90;;;;;;5111512;27;20687;-81
2024/01/25 12:20:13;;;;;;;5.93;2.30;;;27.80;99.90;;;;;;5111886;28;20662;-81
2024/01/25 12:22:44;;;;;;;9.48;3.05;;;27.70;99.90;;;;;;5115223;27;20195;-83
2024/01/25 12:25:15;;;;;;;8.15;2.70;;;27.70;99.90;;;;;;5111520;28;20187;-82
2024/01/25 12:27:46;;;;;;;10.15;2.83;;;27.70;99.90;;;;;;5110587;28;20199;-82
2024/01/25 12:30:19;;;;;;;7.43;2.80;;;27.70;99.90;;;;;;5110542;28;20577;-82
2024/01/25 12:32:52;;;;;;;6.80;2.35;;;27.70;99.90;;;;;;5112505;28;20588;-81
2024/01/25 12:35:23;;;;;;;6.20;2.70;;;27.70;99.90;;;;;;5114278;27;20569;-82
2024/01/25 12:37:54;;;;;;;10.23;2.80;;;27.70;99.90;;;;;;5111404;28;20206;-81
2024/01/25 12:40:24;;;;;;;6.15;2.70;;;27.70;99.90;;;;;;5111456;27;20199;-81
2024/01/25 12:42:55;;;;;;;9.73;3.20;;;27.70;99.90;;;;;;5110687;28;20190;-81
2024/01/25 12:45:28;;;;;;;7.95;2.78;;;27.70;99.90;;;;;;5119237;27;20989;-81
2024/01/25 12:47:59;;;;;;;7.65;2.83;;;27.70;99.90;;;;;;5115162;27;20205;-84
2024/01/25 12:50:30;;;;;;;6.72;2.35;;;27.60;99.90;;;;;;5111359;28;20238;-81
2024/01/25 12:53:01;;;;;;;7.35;3.15;;;27.60;99.90;;;;;;5110795;28;20547;-82
2024/01/25 12:55:33;;;;;;;9.48;2.80;;;27.60;99.90;;;;;;5118020;28;20565;-82
2024/01/25 12:58:04;;;;;;;7.72;2.75;;;27.60;99.90;;;;;;5141108;28;20296;-81
2024/01/25 13:00:36;;;;;;;9.63;2.80;;;27.60;99.90;;;;;;5130529;28;20190;-80
2024/01/25 13:03:07;;;;;;;8.65;3.10;;;27.50;99.90;;;;;;5132242;27;20215;-80